Time;durP1;ratioP1;P1;durP2;ratioP2;P2;SDS_P1;SDS_P2;PMS_P1;PMS_P2;Temp;Humidity;BMP_temperature;BMP_pressure;BME280_temperature;BME280_humidity;BME280_pressure;Samples;Min_cycle;Max_cycle;Signal;HPM_P1;HPM_P2
2021/05/02 00:01:36;;;;;;;4.30;3.30;;;9.10;90.80;;;10.01;73.47;97755.63;5061135;28;20748;-81
2021/05/02 00:04:06;;;;;;;7.57;3.77;;;9.10;91.20;;;10.04;72.73;97752.63;5052746;28;20904;-81
2021/05/02 00:06:34;;;;;;;4.17;2.70;;;9.10;90.60;;;9.93;73.50;97751.34;5054415;28;20462;-81
2021/05/02 00:09:02;;;;;;;4.60;3.70;;;9.00;91.10;;;9.98;73.03;97751.59;5061314;28;20556;-86
2021/05/02 00:11:30;;;;;;;12.10;6.00;;;9.20;90.80;;;9.95;73.58;97752.00;5053550;28;20471;-80
2021/05/02 00:13:58;;;;;;;10.23;3.70;;;9.10;90.90;;;9.96;73.27;97753.59;5055560;28;20869;-79
2021/05/02 00:16:26;;;;;;;6.43;3.43;;;9.10;90.80;;;9.99;73.15;97760.25;5053330;28;20464;-80
2021/05/02 00:18:54;;;;;;;8.00;3.57;;;9.10;90.90;;;10.00;71.95;97756.63;5057618;28;20463;-80
2021/05/02 00:21:25;;;;;;;9.33;4.03;;;9.10;90.50;;;10.02;72.53;97757.25;5059387;28;20944;-80
2021/05/02 00:23:53;;;;;;;8.17;3.90;;;9.10;90.80;;;9.97;72.83;97757.00;5063317;28;20579;-81
2021/05/02 00:26:21;;;;;;;6.70;4.03;;;9.00;90.50;;;9.99;71.72;97755.03;5069740;28;20452;-80
2021/05/02 00:28:53;;;;;;;6.33;4.03;;;9.00;90.40;;;10.00;71.40;97752.22;5064205;28;20464;-80
2021/05/02 00:31:22;;;;;;;11.90;4.13;;;9.10;90.40;;;10.01;71.06;97753.03;5064048;28;20476;-80
2021/05/02 00:33:50;;;;;;;4.90;3.70;;;9.10;90.30;;;9.97;70.01;97757.00;5067717;28;20459;-80
2021/05/02 00:36:18;;;;;;;6.30;4.63;;;9.10;89.20;;;9.99;70.11;97757.63;5066069;28;20444;-80
2021/05/02 00:38:46;;;;;;;5.07;3.47;;;9.10;89.60;;;10.03;70.82;97756.28;5057438;28;20453;-80
2021/05/02 00:41:22;;;;;;;4.50;3.37;;;9.20;90.50;;;10.08;70.96;97752.06;5058995;28;20481;-80
2021/05/02 00:44:03;;;;;;;8.20;3.77;;;9.30;90.40;;;10.09;71.77;97758.13;5057955;28;20492;-80
2021/05/02 00:46:36;;;;;;;10.33;3.80;;;9.20;90.60;;;9.89;73.38;97754.56;5061623;28;20463;-80
2021/05/02 00:49:14;;;;;;;6.80;4.00;;;9.10;91.10;;;9.77;75.59;97761.28;5056256;28;20975;-80
2021/05/02 00:51:47;;;;;;;5.13;4.17;;;8.80;91.70;;;9.74;74.85;97765.09;5060586;28;20444;-80
2021/05/02 00:54:28;;;;;;;4.70;3.50;;;8.90;91.40;;;9.75;75.41;97763.28;5063369;28;20461;-80
2021/05/02 00:57:02;;;;;;;5.33;3.70;;;8.80;91.50;;;9.77;74.91;97771.72;5059985;28;20464;-80
2021/05/02 00:59:53;;;;;;;6.37;3.90;;;8.90;91.50;;;9.78;75.06;97768.94;5060474;28;20461;-80
2021/05/02 01:02:28;;;;;;;4.53;3.40;;;8.90;91.40;;;9.73;74.91;97766.06;5056011;28;20449;-80
2021/05/02 01:05:01;;;;;;;7.30;4.53;;;8.80;91.40;;;9.57;76.97;97763.72;5060446;28;20524;-81
2021/05/02 01:07:35;;;;;;;6.47;3.57;;;8.70;91.90;;;9.46;77.66;97761.63;5054701;28;20459;-81
2021/05/02 01:10:09;;;;;;;7.40;3.80;;;8.60;92.20;;;9.58;76.68;97770.53;5056695;28;20452;-81
2021/05/02 01:12:46;;;;;;;9.77;4.33;;;8.70;91.70;;;9.40;77.57;97765.78;5065063;28;20869;-81
2021/05/02 01:15:20;;;;;;;4.43;3.80;;;8.50;92.10;;;9.40;78.07;97767.59;5060345;28;20456;-80
2021/05/02 01:17:55;;;;;;;5.00;3.97;;;8.50;92.20;;;9.38;79.45;97775.59;5056266;28;20542;-80
2021/05/02 01:20:24;;;;;;;5.20;3.60;;;8.40;92.60;;;9.26;79.98;97779.69;5062528;28;20513;-80
2021/05/02 01:22:56;;;;;;;5.70;4.50;;;8.30;92.90;;;9.27;78.94;97776.06;5056278;28;20449;-80
2021/05/02 01:25:26;;;;;;;6.30;4.47;;;8.30;92.30;;;9.30;79.08;97778.31;5060721;28;20486;-80
2021/05/02 01:27:57;;;;;;;9.70;4.57;;;8.40;92.40;;;9.19;80.27;97788.44;5057815;28;20515;-80
2021/05/02 01:30:27;;;;;;;8.20;4.60;;;8.30;92.70;;;9.19;79.83;97791.03;5061413;28;20678;-80
2021/05/02 01:32:55;;;;;;;5.70;4.03;;;8.40;92.70;;;9.20;80.00;97790.84;5063921;28;21225;-81
2021/05/02 01:35:24;;;;;;;13.23;4.50;;;8.30;92.50;;;9.22;79.96;97793.28;5058291;28;20472;-81
2021/05/02 01:37:53;;;;;;;7.40;3.90;;;8.30;92.60;;;9.21;79.77;97789.06;5059117;28;20465;-81
2021/05/02 01:40:21;;;;;;;10.90;4.50;;;8.30;92.70;;;9.16;79.84;97797.44;5059662;28;20469;-81
2021/05/02 01:42:50;;;;;;;12.40;4.23;;;8.30;92.40;;;9.00;80.82;97795.03;5055484;28;20465;-80
2021/05/02 01:45:18;;;;;;;6.77;4.33;;;8.10;93.10;;;8.91;82.64;97802.19;5057161;28;21059;-80
2021/05/02 01:47:49;;;;;;;8.00;4.23;;;8.00;93.40;;;8.97;82.00;97796.22;5054849;28;20496;-81
2021/05/02 01:50:18;;;;;;;13.60;4.30;;;8.10;93.20;;;8.93;83.15;97794.97;5056928;28;20468;-80
2021/05/02 01:52:48;;;;;;;9.63;4.70;;;8.00;93.70;;;8.87;83.61;97800.09;5051463;28;20462;-81
2021/05/02 01:55:19;;;;;;;6.40;4.10;;;7.90;93.80;;;8.84;83.95;97795.25;5053634;28;20477;-81
2021/05/02 01:57:51;;;;;;;9.40;4.17;;;7.90;93.90;;;8.88;83.98;97799.13;5057129;28;21001;-80
2021/05/02 02:00:45;;;;;;;5.10;4.00;;;7.90;93.90;;;8.91;83.59;97801.38;5049680;28;20457;-81
2021/05/02 02:03:14;;;;;;;8.33;4.60;;;8.10;93.60;;;8.92;83.08;97805.59;5058862;28;20453;-80
2021/05/02 02:05:42;;;;;;;5.40;4.30;;;8.00;93.50;;;8.94;82.79;97811.41;5052084;28;20452;-80
2021/05/02 02:08:10;;;;;;;7.97;4.87;;;8.00;93.30;;;8.86;83.51;97809.72;5054414;28;20460;-81
2021/05/02 02:10:39;;;;;;;7.00;4.60;;;8.00;93.70;;;8.86;83.74;97806.31;5055319;28;20461;-80
2021/05/02 02:13:12;;;;;;;5.73;4.70;;;7.90;93.70;;;8.81;84.79;97813.88;5060207;28;20824;-80
2021/05/02 02:15:41;;;;;;;10.83;4.53;;;7.90;94.10;;;8.87;83.79;97805.31;5052645;28;20551;-81
2021/05/02 02:18:10;;;;;;;9.03;5.03;;;8.00;93.70;;;8.87;83.02;97810.53;5053655;28;20461;-80
2021/05/02 02:20:41;;;;;;;8.00;4.23;;;8.00;93.50;;;8.89;83.32;97811.16;5057113;28;20468;-80
2021/05/02 02:23:18;;;;;;;5.40;3.90;;;8.10;93.60;;;8.72;84.47;97820.16;5063675;28;20465;-81
2021/05/02 02:25:48;;;;;;;12.73;4.03;;;7.80;93.90;;;8.70;84.64;97825.56;5060329;28;20898;-81
2021/05/02 02:28:21;;;;;;;6.13;4.20;;;7.80;94.10;;;8.61;85.29;97825.84;5057321;28;20456;-80
2021/05/02 02:30:51;;;;;;;9.07;4.60;;;7.60;94.00;;;8.48;85.54;97819.44;5063589;28;20537;-81
2021/05/02 02:33:23;;;;;;;13.33;4.73;;;7.60;94.30;;;8.54;85.77;97825.72;5065472;28;20515;-80
2021/05/02 02:35:54;;;;;;;7.00;4.80;;;7.60;94.30;;;8.57;85.38;97831.38;5060827;28;20476;-80
2021/05/02 02:38:25;;;;;;;10.93;5.37;;;7.80;94.10;;;8.52;85.56;97831.13;5055158;28;20467;-80
2021/05/02 02:40:55;;;;;;;10.53;5.13;;;7.60;94.10;;;8.50;85.36;97837.53;5062123;28;20459;-80
2021/05/02 02:43:26;;;;;;;6.50;4.57;;;7.60;94.10;;;8.56;84.82;97834.19;5055089;28;20480;-81
2021/05/02 02:45:58;;;;;;;7.17;4.73;;;7.70;93.90;;;8.47;86.13;97838.66;5057205;28;20457;-80
2021/05/02 02:48:29;;;;;;;10.87;5.77;;;7.60;94.30;;;8.51;84.99;97842.53;5062819;28;20459;-80
2021/05/02 02:50:59;;;;;;;9.20;4.67;;;7.70;94.10;;;8.49;85.69;97852.34;5058225;28;20475;-80
2021/05/02 02:53:30;;;;;;;6.10;4.67;;;7.60;94.00;;;8.47;85.39;97843.88;5058139;28;20460;-80
2021/05/02 02:56:06;;;;;;;7.90;5.30;;;7.60;94.30;;;8.48;84.72;97845.50;5062593;28;20819;-81
2021/05/02 02:58:46;;;;;;;10.10;4.53;;;7.60;93.90;;;8.42;85.92;97843.63;5066368;28;20464;-80
2021/05/02 03:01:15;;;;;;;4.77;4.23;;;7.50;94.20;;;8.37;86.23;97853.75;5060554;28;20469;-81
2021/05/02 03:03:46;;;;;;;8.53;5.53;;;7.50;94.40;;;8.30;86.53;97855.44;5063818;28;20888;-80
2021/05/02 03:06:13;;;;;;;7.80;4.60;;;7.40;94.50;;;8.21;87.42;97845.25;5053643;28;20464;-80
2021/05/02 03:08:41;;;;;;;7.33;4.30;;;7.30;94.80;;;8.13;88.34;97853.94;5058868;28;20811;-81
2021/05/02 03:11:10;;;;;;;10.60;5.10;;;7.10;95.10;;;8.06;88.53;97853.84;5059068;28;20949;-80
2021/05/02 03:13:38;;;;;;;7.97;5.40;;;7.00;94.90;;;7.98;89.50;97860.94;5059067;28;21103;-80
2021/05/02 03:16:06;;;;;;;6.33;4.27;;;7.00;95.30;;;7.90;89.56;97863.59;5060984;28;20460;-80
2021/05/02 03:18:44;;;;;;;9.23;4.97;;;6.90;95.30;;;7.69;91.22;97861.63;5056997;28;20530;-80
2021/05/02 03:21:19;;;;;;;12.00;5.40;;;6.70;95.60;;;7.81;90.95;97859.44;5063851;28;20533;-80
2021/05/02 03:23:48;;;;;;;7.70;5.23;;;6.80;95.70;;;7.84;90.58;97864.28;5059147;28;21258;-80
2021/05/02 03:26:17;;;;;;;7.20;4.80;;;6.90;95.60;;;7.63;91.54;97870.13;5064746;28;20463;-81
2021/05/02 03:28:52;;;;;;;7.33;4.83;;;6.60;95.80;;;7.70;91.91;97872.84;5068677;28;20811;-80
2021/05/02 03:31:27;;;;;;;14.83;5.20;;;6.70;95.90;;;7.63;93.36;97879.72;5066366;28;21003;-80
2021/05/02 03:34:02;;;;;;;6.37;5.23;;;6.60;96.20;;;7.57;92.74;97879.41;5068502;28;20446;-81
2021/05/02 03:36:35;;;;;;;8.07;5.13;;;6.60;96.30;;;7.35;94.83;97880.22;5062398;28;20459;-80
2021/05/02 03:39:05;;;;;;;7.43;5.00;;;6.40;96.50;;;7.29;95.01;97886.06;5066444;28;20955;-80
2021/05/02 03:41:34;;;;;;;8.33;4.70;;;6.30;96.60;;;7.29;95.56;97886.06;5057199;28;20456;-80
2021/05/02 03:44:04;;;;;;;6.97;4.90;;;6.40;96.80;;;7.19;96.83;97895.06;5050779;28;20492;-80
2021/05/02 03:46:33;;;;;;;7.03;4.97;;;6.20;97.00;;;7.12;97.32;97896.72;5060296;28;20462;-80
2021/05/02 03:49:03;;;;;;;7.80;5.10;;;6.20;97.30;;;7.02;98.77;97904.72;5060905;28;20536;-80
2021/05/02 03:51:35;;;;;;;5.30;4.47;;;6.00;97.90;;;7.08;97.93;97898.84;5061734;28;20466;-81
2021/05/02 03:54:03;;;;;;;7.23;5.30;;;6.10;97.30;;;6.98;97.65;97904.25;5054914;28;20467;-80
2021/05/02 03:56:39;;;;;;;6.80;5.00;;;6.00;97.20;;;6.94;98.21;97905.53;5057474;28;20520;-80
2021/05/02 03:59:14;;;;;;;7.70;6.17;;;6.00;97.50;;;6.82;99.17;97901.69;5061017;28;20461;-80
2021/05/02 04:01:51;;;;;;;7.20;5.23;;;5.90;97.80;;;6.69;100.00;97906.63;5063310;28;20970;-80
2021/05/02 04:04:21;;;;;;;8.30;6.07;;;5.70;97.80;;;6.63;100.00;97909.84;5064643;28;20500;-80
2021/05/02 04:06:49;;;;;;;9.47;6.07;;;5.60;98.30;;;6.68;100.00;97909.38;5061000;28;20466;-80
2021/05/02 04:09:18;;;;;;;13.57;6.70;;;5.70;98.40;;;6.73;100.00;97920.09;5062675;28;20470;-80
2021/05/02 04:11:46;;;;;;;9.57;6.50;;;5.80;98.00;;;6.76;100.00;97930.16;5061657;28;20469;-80
2021/05/02 04:14:17;;;;;;;8.17;6.43;;;5.80;98.10;;;6.81;99.56;97933.03;5067340;28;20538;-80
2021/05/02 04:16:53;;;;;;;12.00;6.30;;;5.90;97.90;;;6.74;99.71;97932.88;5057064;28;20474;-80
2021/05/02 04:19:21;;;;;;;8.37;6.20;;;5.80;97.90;;;6.46;100.00;97949.81;5061761;28;20828;-80
2021/05/02 04:21:48;;;;;;;14.10;7.97;;;5.50;98.40;;;6.61;100.00;97952.56;5069908;28;20468;-81
2021/05/02 04:24:20;;;;;;;9.63;7.07;;;5.60;98.20;;;6.66;100.00;97950.28;5060866;28;20488;-80
2021/05/02 04:26:51;;;;;;;11.27;7.03;;;5.70;98.30;;;6.62;100.00;97955.00;5061798;28;20839;-80
2021/05/02 04:29:20;;;;;;;8.00;6.23;;;5.70;98.20;;;6.50;100.00;97957.13;5062874;28;20807;-80
2021/05/02 04:31:48;;;;;;;11.10;6.23;;;5.50;98.40;;;6.42;100.00;97957.13;5065491;28;20485;-80
2021/05/02 04:34:15;;;;;;;12.70;6.20;;;5.50;98.60;;;6.38;100.00;97968.00;5058815;28;20458;-80
2021/05/02 04:36:43;;;;;;;10.87;6.90;;;5.40;98.70;;;6.51;100.00;97971.75;5063261;28;20468;-80
2021/05/02 04:39:10;;;;;;;8.50;6.30;;;5.60;98.70;;;6.35;100.00;97969.13;5064368;28;20517;-80
2021/05/02 04:41:38;;;;;;;9.23;6.40;;;5.40;98.80;;;6.47;100.00;97982.59;5062654;28;20804;-80
2021/05/02 04:44:06;;;;;;;10.00;6.70;;;5.60;98.70;;;6.43;100.00;97976.13;5064284;28;20515;-80
2021/05/02 04:46:35;;;;;;;10.47;7.20;;;5.50;98.50;;;6.37;100.00;97980.19;5067122;28;20466;-80
2021/05/02 04:49:04;;;;;;;7.60;6.60;;;5.40;99.10;;;6.35;100.00;97982.09;5058622;28;20822;-80
2021/05/02 04:51:31;;;;;;;11.20;7.27;;;5.40;99.20;;;6.33;100.00;97991.84;5065072;28;20477;-80
2021/05/02 04:53:59;;;;;;;9.80;7.27;;;5.40;99.30;;;6.30;100.00;97992.19;5065530;28;20461;-80
2021/05/02 04:56:26;;;;;;;9.00;6.80;;;5.30;99.40;;;6.29;100.00;97995.75;5061260;28;20500;-80
2021/05/02 04:58:54;;;;;;;9.20;6.30;;;5.30;99.30;;;6.27;100.00;97997.69;5064349;28;20458;-80
2021/05/02 05:01:22;;;;;;;9.97;6.70;;;5.30;99.20;;;6.12;100.00;98004.50;5055610;28;20464;-80
2021/05/02 05:03:51;;;;;;;8.27;6.80;;;5.10;99.80;;;6.18;100.00;98008.25;5065124;28;20489;-80
2021/05/02 05:06:18;;;;;;;7.67;6.47;;;5.20;99.90;;;6.23;100.00;98006.78;5067987;28;20472;-80
2021/05/02 05:08:46;;;;;;;9.73;6.67;;;5.20;99.90;;;6.35;100.00;98007.28;5067626;28;20855;-80
2021/05/02 05:11:13;;;;;;;9.03;6.77;;;5.30;99.90;;;6.28;100.00;98009.69;5063321;28;20524;-80
2021/05/02 05:13:41;;;;;;;11.00;7.37;;;5.30;99.90;;;6.19;100.00;98015.84;5070568;28;20459;-80
2021/05/02 05:16:08;;;;;;;16.00;8.17;;;5.20;99.90;;;6.30;100.00;98012.97;5060218;28;20493;-80
2021/05/02 05:18:36;;;;;;;9.33;7.10;;;5.40;99.90;;;6.22;100.00;98012.94;5061057;28;20968;-80
2021/05/02 05:21:05;;;;;;;10.20;7.40;;;5.30;99.90;;;6.25;100.00;98015.22;5054762;28;20489;-80
2021/05/02 05:23:32;;;;;;;11.73;7.30;;;5.30;99.90;;;6.28;100.00;98024.47;5064672;28;20449;-80
2021/05/02 05:26:00;;;;;;;12.13;7.40;;;5.30;99.90;;;6.43;100.00;98026.28;5062962;28;20460;-80
2021/05/02 05:28:28;;;;;;;8.87;6.20;;;5.50;99.90;;;6.55;100.00;98022.41;5060811;28;20516;-80
2021/05/02 05:30:57;;;;;;;9.00;5.93;;;5.70;99.90;;;6.66;100.00;98023.03;5067263;28;20476;-80
2021/05/02 05:33:30;;;;;;;9.50;6.70;;;5.80;99.90;;;6.71;100.00;98024.16;5063174;28;20833;-80
2021/05/02 05:35:57;;;;;;;14.97;7.53;;;5.90;99.90;;;6.83;100.00;98020.28;5060727;28;21446;-81
2021/05/02 05:38:26;;;;;;;9.40;7.00;;;6.00;99.90;;;6.89;100.00;98019.59;5068855;28;20522;-80
2021/05/02 05:40:53;;;;;;;11.70;7.10;;;6.10;99.90;;;6.98;100.00;98023.00;5053580;28;20461;-80
2021/05/02 05:43:21;;;;;;;12.37;7.60;;;6.10;99.90;;;7.08;100.00;98023.63;5061464;28;20880;-80
2021/05/02 05:45:49;;;;;;;13.57;8.13;;;6.20;99.90;;;7.14;100.00;98023.00;5059500;28;21151;-80
2021/05/02 05:48:17;;;;;;;10.53;7.33;;;6.30;99.60;;;7.14;100.00;98020.38;5061746;28;20469;-80
2021/05/02 05:50:48;;;;;;;12.00;8.53;;;6.30;99.60;;;7.18;100.00;98023.47;5063425;28;20489;-80
2021/05/02 05:53:16;;;;;;;11.70;8.63;;;6.30;99.60;;;7.22;100.00;98033.34;5059071;28;20470;-81
2021/05/02 05:55:45;;;;;;;15.93;8.80;;;6.50;99.10;;;7.26;100.00;98032.03;5066553;28;20516;-80
2021/05/02 05:58:13;;;;;;;11.87;8.40;;;6.50;98.70;;;7.36;100.00;98031.84;5058606;28;20468;-80
2021/05/02 06:00:40;;;;;;;16.10;9.43;;;6.60;98.50;;;7.40;99.84;98038.34;5055706;28;20980;-81
2021/05/02 06:03:08;;;;;;;13.00;8.83;;;6.70;98.10;;;7.42;99.35;98042.41;5066638;28;20451;-80
2021/05/02 06:05:35;;;;;;;12.17;8.80;;;6.70;98.30;;;7.47;99.27;98045.31;5063441;28;20544;-80
2021/05/02 06:08:04;;;;;;;11.53;7.73;;;6.70;98.20;;;7.55;98.70;98037.50;5059290;28;21212;-81
2021/05/02 06:10:31;;;;;;;23.33;9.57;;;6.80;98.10;;;7.57;98.34;98034.72;5056043;28;20459;-81
2021/05/02 06:13:00;;;;;;;15.17;9.37;;;6.80;97.90;;;7.57;97.70;98039.91;5064009;28;20477;-80
2021/05/02 06:15:27;;;;;;;13.83;9.57;;;6.80;97.80;;;7.55;97.24;98047.09;5061990;28;20468;-80
2021/05/02 06:17:55;;;;;;;14.27;9.50;;;6.80;97.90;;;7.63;97.15;98056.66;5055134;28;20509;-80
2021/05/02 06:20:23;;;;;;;12.40;8.63;;;6.90;97.80;;;7.62;96.78;98048.03;5056554;28;20932;-80
2021/05/02 06:22:50;;;;;;;16.13;9.47;;;6.90;97.60;;;7.63;96.48;98048.84;5052183;28;20975;-84
2021/05/02 06:25:18;;;;;;;18.57;10.80;;;6.90;97.80;;;7.71;97.25;98048.81;5059766;28;20561;-80
2021/05/02 06:27:46;;;;;;;13.80;8.47;;;7.00;97.90;;;7.77;97.10;98048.16;5053795;28;20487;-81
2021/05/02 06:30:17;;;;;;;12.00;8.43;;;7.00;97.90;;;7.84;95.12;98046.50;5052861;28;20551;-86
2021/05/02 06:32:45;;;;;;;14.20;8.47;;;7.10;96.90;;;7.85;92.42;98058.50;5054857;28;20536;-80
2021/05/02 06:35:13;;;;;;;10.63;7.90;;;7.20;96.30;;;7.84;91.63;98054.31;5064121;28;20497;-81
2021/05/02 06:37:40;;;;;;;9.67;7.10;;;7.10;95.90;;;7.89;90.95;98059.81;5070349;28;20443;-80
2021/05/02 06:40:10;;;;;;;10.57;7.00;;;7.20;95.90;;;7.96;89.89;98061.56;5063590;28;21001;-81
2021/05/02 06:42:37;;;;;;;12.60;8.00;;;7.30;95.80;;;8.02;89.29;98062.66;5062133;28;20447;-81
2021/05/02 06:45:06;;;;;;;10.97;7.23;;;7.30;95.40;;;8.05;87.63;98075.38;5060903;28;20515;-81
2021/05/02 06:47:35;;;;;;;9.00;6.17;;;7.30;94.90;;;8.06;86.30;98072.56;5069097;28;20510;-81
2021/05/02 06:50:03;;;;;;;11.93;5.97;;;7.40;94.60;;;8.05;86.91;98070.94;5056209;28;20481;-81
2021/05/02 06:52:31;;;;;;;7.80;5.70;;;7.40;94.90;;;8.07;85.19;98074.22;5055411;28;20531;-81
2021/05/02 06:54:58;;;;;;;8.70;6.30;;;7.40;94.30;;;8.07;85.06;98069.00;5064611;28;20456;-81
2021/05/02 06:57:26;;;;;;;6.00;4.90;;;7.40;94.30;;;8.04;84.61;98063.31;5059936;28;20446;-81
2021/05/02 06:59:53;;;;;;;13.17;5.90;;;7.30;94.20;;;8.13;83.82;98077.09;5053532;28;20455;-80
2021/05/02 07:02:21;;;;;;;43.33;20.97;;;7.50;94.00;;;8.15;82.50;98075.97;5058503;28;20461;-80
2021/05/02 07:04:49;;;;;;;10.10;6.80;;;7.40;93.60;;;8.18;82.10;98082.63;5052729;28;21073;-81
2021/05/02 07:07:17;;;;;;;8.90;5.90;;;7.50;94.00;;;8.21;81.03;98074.47;5057977;28;20447;-81
2021/05/02 07:09:44;;;;;;;7.23;5.30;;;7.60;93.40;;;8.22;81.14;98087.31;5063752;28;20437;-81
2021/05/02 07:12:12;;;;;;;10.43;6.20;;;7.50;93.40;;;8.25;81.51;98086.16;5051464;28;20476;-81
2021/05/02 07:14:40;;;;;;;5.93;5.07;;;7.50;93.40;;;8.32;80.69;98087.94;5069578;28;20492;-81
2021/05/02 07:17:08;;;;;;;5.77;4.40;;;7.70;93.30;;;8.32;80.15;98074.91;5078190;28;20887;-81
2021/05/02 07:19:36;;;;;;;5.27;4.60;;;7.70;92.80;;;8.34;79.92;98080.75;5062304;28;20983;-81
2021/05/02 07:22:06;;;;;;;12.40;5.43;;;7.70;93.10;;;8.40;79.76;98085.28;5060153;28;20467;-81
2021/05/02 07:24:33;;;;;;;14.60;5.33;;;7.70;93.10;;;8.46;79.60;98086.41;5056215;28;20508;-81
2021/05/02 07:27:01;;;;;;;6.57;5.20;;;7.80;92.60;;;8.43;78.45;98084.97;5063651;28;20499;-80
2021/05/02 07:29:29;;;;;;;7.73;4.90;;;7.80;92.60;;;8.49;77.98;98088.66;5056561;28;20877;-80
2021/05/02 07:31:56;;;;;;;6.07;4.33;;;7.90;92.50;;;8.52;76.85;98083.91;5055715;28;20906;-83
2021/05/02 07:34:26;;;;;;;9.00;5.20;;;7.90;91.90;;;8.58;75.87;98093.63;5052183;28;20522;-81
2021/05/02 07:36:55;;;;;;;5.93;4.80;;;7.90;91.70;;;8.63;74.79;98094.91;5057232;28;20464;-81
2021/05/02 07:39:24;;;;;;;6.00;4.80;;;8.00;91.50;;;8.58;73.88;98088.41;5054215;28;20464;-81
2021/05/02 07:41:52;;;;;;;7.33;4.97;;;7.90;91.10;;;8.63;74.02;98094.91;5055287;28;20450;-80
2021/05/02 07:44:21;;;;;;;6.97;4.33;;;8.00;91.50;;;8.70;73.37;98103.66;5067905;28;20578;-80
2021/05/02 07:46:49;;;;;;;6.27;5.10;;;8.10;91.20;;;8.75;73.81;98106.53;5066813;28;20535;-81
2021/05/02 07:49:17;;;;;;;5.10;3.83;;;8.10;91.40;;;8.73;71.42;98105.91;5055282;28;20449;-81
2021/05/02 07:51:44;;;;;;;8.57;5.00;;;8.10;90.40;;;8.74;73.33;98107.56;5060141;28;21037;-80
2021/05/02 07:54:12;;;;;;;9.60;4.83;;;8.10;91.30;;;8.77;74.62;98102.00;5057790;28;20472;-80
2021/05/02 07:56:41;;;;;;;6.87;5.03;;;8.20;91.70;;;8.87;74.37;98113.00;5061657;28;20476;-80
2021/05/02 07:59:09;;;;;;;9.30;6.37;;;8.20;91.40;;;8.84;73.94;98121.16;5053463;28;20964;-80
2021/05/02 08:01:37;;;;;;;6.70;4.90;;;8.20;91.40;;;8.90;72.60;98115.25;5058710;28;21071;-80
2021/05/02 08:04:06;;;;;;;8.33;5.30;;;8.30;91.00;;;8.89;73.42;98108.41;5063955;28;20444;-80
2021/05/02 08:06:33;;;;;;;6.10;4.90;;;8.30;91.40;;;8.94;75.45;98121.75;5057658;28;20959;-81
2021/05/02 08:09:01;;;;;;;9.30;5.10;;;8.20;92.00;;;9.09;75.02;98117.38;5058156;28;20452;-81
2021/05/02 08:11:30;;;;;;;7.73;5.10;;;8.50;91.80;;;9.13;76.46;98118.63;5052851;28;20776;-81
2021/05/02 08:13:58;;;;;;;6.00;4.50;;;8.50;92.40;;;9.13;76.59;98123.06;5060022;28;20456;-80
2021/05/02 08:16:26;;;;;;;5.30;4.60;;;8.50;92.20;;;9.06;75.50;98123.75;5063557;28;20953;-81
2021/05/02 08:18:55;;;;;;;9.23;4.70;;;8.40;91.70;;;9.08;74.96;98127.00;5053336;28;20491;-81
2021/05/02 08:21:23;;;;;;;5.43;4.73;;;8.50;91.80;;;9.08;75.57;98127.00;5048639;28;20445;-81
2021/05/02 08:23:51;;;;;;;7.10;5.17;;;8.40;91.90;;;9.04;75.27;98117.09;5053414;28;20460;-81
2021/05/02 08:26:18;;;;;;;6.40;4.20;;;8.40;91.70;;;9.15;76.09;98134.94;5053295;28;21036;-81
2021/05/02 08:28:46;;;;;;;8.20;4.87;;;8.50;92.30;;;9.20;74.57;98127.38;5056941;28;20468;-81
2021/05/02 08:31:15;;;;;;;5.20;4.10;;;8.50;91.50;;;9.27;74.53;98125.69;5064522;28;20472;-81
2021/05/02 08:33:42;;;;;;;6.83;4.50;;;8.60;91.60;;;9.27;73.36;98136.13;5055265;28;20444;-81
2021/05/02 08:36:10;;;;;;;5.97;4.00;;;8.60;91.30;;;9.34;73.19;98131.00;5055629;28;20452;-80
2021/05/02 08:38:38;;;;;;;5.30;4.07;;;8.70;91.20;;;9.38;72.09;98142.72;5047923;28;20453;-81
2021/05/02 08:41:07;;;;;;;4.23;3.60;;;8.70;90.70;;;9.44;70.37;98150.66;5051950;28;20468;-81
2021/05/02 08:43:35;;;;;;;6.67;4.80;;;8.80;90.50;;;9.43;70.73;98145.63;5063176;28;20468;-81
2021/05/02 08:46:04;;;;;;;4.97;4.10;;;8.80;90.60;;;9.49;70.53;98144.91;5053938;28;20495;-81
2021/05/02 08:48:33;;;;;;;6.17;4.57;;;8.90;90.50;;;9.46;69.75;98135.66;5055929;28;20475;-81
2021/05/02 08:51:01;;;;;;;6.40;4.70;;;8.90;90.30;;;9.49;70.64;98145.72;5060789;28;20656;-81
2021/05/02 08:53:30;;;;;;;5.53;4.47;;;8.90;90.70;;;9.63;71.61;98143.31;5062740;28;20838;-81
2021/05/02 08:56:02;;;;;;;7.70;4.60;;;8.90;91.20;;;9.57;70.25;98158.72;5061816;28;20487;-81
2021/05/02 08:58:32;;;;;;;11.17;5.27;;;8.90;90.50;;;9.57;70.06;98152.69;5051711;28;20456;-80
2021/05/02 09:01:03;;;;;;;7.17;5.50;;;8.90;90.40;;;9.56;71.08;98146.63;5057934;28;20472;-80
2021/05/02 09:03:40;;;;;;;7.60;4.80;;;8.80;90.80;;;9.65;70.09;98147.34;5063661;28;20461;-80
2021/05/02 09:06:20;;;;;;;7.00;5.13;;;8.90;90.50;;;9.74;70.16;98138.47;5064962;28;20496;-80
2021/05/02 09:08:53;;;;;;;7.00;4.00;;;9.00;90.60;;;9.80;69.96;98136.94;5063114;28;20467;-80
2021/05/02 09:11:33;;;;;;;7.60;4.73;;;9.10;90.30;;;9.77;68.33;98142.50;5057153;28;20463;-80
2021/05/02 09:14:04;;;;;;;6.43;4.13;;;9.10;90.00;;;9.77;65.75;98132.88;5063694;28;20950;-80
2021/05/02 09:16:48;;;;;;;6.20;3.93;;;9.10;88.40;;;9.74;64.64;98135.84;5069466;28;20952;-80
2021/05/02 09:19:17;;;;;;;6.20;4.10;;;9.00;87.90;;;9.80;64.17;98132.53;5056209;28;20868;-81
2021/05/02 09:21:46;;;;;;;5.00;4.07;;;9.00;87.50;;;9.87;65.03;98133.41;5053645;28;20515;-80
2021/05/02 09:24:30;;;;;;;6.30;3.97;;;9.10;88.60;;;10.01;64.85;98129.19;5054695;28;20464;-81
2021/05/02 09:27:10;;;;;;;4.40;4.00;;;9.30;88.60;;;10.10;65.24;98130.69;5057287;28;20444;-81
2021/05/02 09:29:42;;;;;;;6.40;4.30;;;9.40;88.40;;;10.04;61.54;98131.44;5059737;28;20944;-81
2021/05/02 09:32:13;;;;;;;10.13;4.50;;;9.40;85.90;;;10.08;62.75;98135.31;5065945;28;20504;-81
2021/05/02 09:34:49;;;;;;;4.77;3.83;;;9.40;86.80;;;10.10;63.00;98141.16;5068078;28;20658;-81
2021/05/02 09:37:20;;;;;;;6.93;4.20;;;9.40;87.40;;;10.09;63.18;98144.78;5066803;28;20460;-81
2021/05/02 09:39:50;;;;;;;6.17;4.17;;;9.40;87.20;;;10.15;63.60;98151.91;5057568;28;20515;-81
2021/05/02 09:42:21;;;;;;;7.63;5.17;;;9.50;87.90;;;10.16;65.30;98147.50;5053736;28;20968;-81
2021/05/02 09:44:51;;;;;;;6.80;4.50;;;9.50;88.90;;;10.16;66.51;98148.31;5059706;28;20488;-81
2021/05/02 09:47:29;;;;;;;11.90;5.77;;;9.50;89.60;;;10.13;66.36;98152.03;5053221;28;20859;-81
2021/05/02 09:50:15;;;;;;;7.03;5.17;;;9.50;89.00;;;10.08;67.74;98135.31;5061071;28;20472;-81
2021/05/02 09:52:52;;;;;;;9.80;5.40;;;9.40;90.20;;;10.24;67.98;98139.56;5053497;28;20465;-82
2021/05/02 09:55:31;;;;;;;11.60;4.93;;;9.60;90.20;;;10.32;66.03;98148.09;5060575;28;20469;-81
2021/05/02 09:58:04;;;;;;;4.07;3.30;;;9.60;88.60;;;10.23;58.33;98141.38;5061768;28;20460;-81
2021/05/02 10:00:39;;;;;;;4.27;3.67;;;9.60;83.30;;;10.34;57.37;98134.88;5059236;28;20472;-81
2021/05/02 10:03:11;;;;;;;12.17;5.60;;;9.70;82.80;;;10.36;56.68;98136.28;5061771;28;20514;-81
2021/05/02 10:05:56;;;;;;;5.90;3.30;;;9.80;82.70;;;10.42;56.48;98132.13;5052450;28;20492;-81
2021/05/02 10:08:27;;;;;;;3.67;3.07;;;9.80;82.00;;;10.47;55.94;98141.06;5051864;28;20968;-81
2021/05/02 10:10:56;;;;;;;5.13;3.80;;;9.80;82.00;;;10.51;58.26;98147.53;5048669;28;20470;-82
2021/05/02 10:13:24;;;;;;;5.90;4.17;;;9.90;84.80;;;10.50;59.93;98156.38;5052550;28;20470;-82
2021/05/02 10:15:52;;;;;;;4.47;3.50;;;9.80;86.10;;;10.56;61.62;98155.63;5055007;28;20502;-82
2021/05/02 10:18:20;;;;;;;4.73;3.90;;;9.90;87.00;;;10.52;62.32;98153.56;5053873;28;21199;-82
2021/05/02 10:20:49;;;;;;;6.15;4.60;;;9.90;87.20;;;10.55;62.48;98153.22;5050359;28;20457;-81
2021/05/02 10:23:19;;;;;;;7.33;4.20;;;9.90;87.10;;;10.57;62.43;98157.25;5056393;28;20206;-81
2021/05/02 10:25:50;;;;;;;4.33;3.67;;;10.00;85.70;;;10.58;61.33;98158.88;5053155;28;20487;-82
2021/05/02 10:28:21;;;;;;;5.53;4.20;;;9.90;86.20;;;10.51;60.37;98152.78;5072095;28;20469;-81
2021/05/02 10:30:53;;;;;;;5.70;4.07;;;9.80;84.80;;;10.57;57.36;98151.22;5055964;28;20467;-82
2021/05/02 10:33:32;;;;;;;4.63;3.40;;;9.90;82.50;;;10.69;56.63;98148.94;5063142;28;20882;-82
2021/05/02 10:36:03;;;;;;;3.90;2.97;;;9.90;82.50;;;10.80;56.19;98159.72;5058300;28;20464;-82
2021/05/02 10:38:54;;;;;;;8.50;3.60;;;10.10;81.60;;;10.88;55.88;98169.25;5064415;28;20456;-82
2021/05/02 10:41:29;;;;;;;4.63;3.60;;;10.20;81.20;;;10.87;55.47;98163.19;5056596;28;20458;-82